»·PEaware :: N88DR KBFL-KCMA

N88DR :: KBFL-KCMA

FLIGHT INFORMATION

Flight Status: Arrived
Operator: Privately registered:
United States
More flights under this callsign
Pilot: Derek R. (15925)
Aircraft: CESSNA 182 SKYLANE
(C182)
More flights by this aircraft type
Origin: KBFL Meadows
United States
Destination: KCMA Camarillo
United States
More flights between these airports :: More routes between these airports
Route: +DCT
File this flight plan on PilotEdge
Remarks:
Altitude:
(Current/Filed)
11,000ft
Speed:
(Current/Filed)
110kts
Departed: 26-Oct-19 10:09 AM
Arrived: 26-Oct-19 10:49 AM
Distance/Time
Traveled:
73nm/0:40
Distance/Time
To Go:
Arrived

Flight Plot

Page will automatically refresh every two minutes.


Map Options




Map Legend


Flown Route
Filed Route
Departure Airport
Arrival Airport
Navaid (VOR, NDB)
Fix

Horizontal Profiles

Position Reports

Time Latitude Longitude Heading Altitude Ground
Speed
26-Oct-19 09:36 35.429366 -119.046107 225 497ft 0kts
26-Oct-19 09:37 35.429366 -119.046107 225 497ft 0kts
26-Oct-19 09:38 35.429366 -119.046107 225 497ft 0kts
26-Oct-19 09:39 35.429366 -119.046107 225 497ft 0kts
26-Oct-19 09:40 35.429366 -119.046107 225 497ft 0kts
26-Oct-19 09:41 35.429366 -119.046107 225 497ft 0kts
26-Oct-19 09:42 35.429366 -119.046107 226 497ft 0kts
26-Oct-19 09:43 35.429366 -119.046107 225 497ft 0kts
26-Oct-19 09:44 35.429366 -119.046107 225 497ft 0kts
26-Oct-19 09:45 35.429366 -119.046107 225 497ft 0kts
26-Oct-19 09:46 35.429366 -119.046107 225 497ft 0kts
26-Oct-19 09:47 35.429282 -119.046208 222 496ft 4kts
26-Oct-19 09:48 35.428121 -119.046926 156 490ft 11kts
26-Oct-19 09:49 35.426102 -119.044694 152 483ft 9kts
26-Oct-19 09:50 35.425632 -119.044929 237 481ft 0kts
26-Oct-19 09:51 35.425632 -119.044929 236 481ft 0kts
26-Oct-19 09:52 35.425598 -119.044991 235 481ft 0kts
26-Oct-19 09:53 35.425526 -119.045121 235 480ft 0kts
26-Oct-19 09:54 35.425454 -119.045252 235 480ft 0kts
26-Oct-19 09:55 35.425382 -119.045383 235 479ft 0kts
26-Oct-19 09:56 35.425309 -119.045516 235 479ft 0kts
26-Oct-19 09:57 35.425283 -119.045562 235 478ft 0kts
26-Oct-19 09:58 35.425214 -119.045686 235 478ft 0kts
26-Oct-19 09:59 35.425143 -119.045816 235 477ft 0kts
26-Oct-19 10:00 35.425069 -119.045948 235 477ft 0kts
26-Oct-19 10:01 35.425022 -119.046031 234 477ft 0kts
26-Oct-19 10:02 35.425014 -119.046043 229 476ft 0kts
26-Oct-19 10:03 35.425014 -119.046043 229 476ft 0kts
26-Oct-19 10:04 35.425014 -119.046043 229 476ft 0kts
26-Oct-19 10:05 35.424040 -119.048024 86 462ft 0kts
26-Oct-19 10:06 35.427463 -119.046416 121 487ft 14kts
26-Oct-19 10:07 35.425521 -119.046017 297 479ft 28kts
26-Oct-19 10:08 35.435374 -119.057252 314 834ft 93kts
26-Oct-19 10:09 35.456238 -119.083083 315 1547ft 112kts
26-Oct-19 10:10 35.478683 -119.112474 297 2183ft 114kts
26-Oct-19 10:11 35.460097 -119.125757 131 2797ft 106kts
26-Oct-19 10:12 35.436854 -119.100508 145 3376ft 124kts
26-Oct-19 10:13 35.403948 -119.081449 155 4017ft 132kts
26-Oct-19 10:14 35.368714 -119.065978 157 4680ft 134kts
26-Oct-19 10:15 35.332888 -119.051339 157 5338ft 136kts
26-Oct-19 10:16 35.296323 -119.036644 157 5996ft 138kts
26-Oct-19 10:17 35.259107 -119.021745 157 6653ft 141kts
26-Oct-19 10:18 35.221601 -119.006761 157 7292ft 142kts
26-Oct-19 10:19 35.182868 -118.995542 180 7917ft 148kts
26-Oct-19 10:20 35.141291 -118.999493 182 8551ft 150kts
26-Oct-19 10:21 35.099567 -119.003788 183 9178ft 152kts
26-Oct-19 10:22 35.058172 -119.007950 190 9844ft 146kts
26-Oct-19 10:23 35.016898 -119.012336 190 10476ft 149kts
26-Oct-19 10:24 34.974230 -119.016773 189 11018ft 157kts
26-Oct-19 10:25 34.926381 -119.021712 189 11020ft 173kts
26-Oct-19 10:26 34.877331 -119.026739 189 11015ft 172kts
26-Oct-19 10:27 34.827827 -119.031859 188 11047ft 175kts
26-Oct-19 10:28 34.778068 -119.036939 188 11033ft 177kts
26-Oct-19 10:29 34.727088 -119.042164 188 11013ft 177kts
26-Oct-19 10:30 34.676127 -119.047348 188 11008ft 176kts
26-Oct-19 10:31 34.626179 -119.052445 188 11008ft 176kts
26-Oct-19 10:32 34.576610 -119.057513 188 11008ft 176kts
26-Oct-19 10:33 34.526898 -119.062602 188 10853ft 182kts
26-Oct-19 10:34 34.473971 -119.067993 188 10541ft 184kts
26-Oct-19 10:35 34.420408 -119.073470 186 10058ft 189kts
26-Oct-19 10:36 34.367352 -119.075861 152 9605ft 190kts
26-Oct-19 10:37 34.329143 -119.031735 133 9155ft 190kts
26-Oct-19 10:38 34.291323 -118.985671 133 8457ft 193kts
26-Oct-19 10:39 34.253304 -118.939220 133 7755ft 192kts
26-Oct-19 10:40 34.215250 -118.892625 133 7045ft 190kts
26-Oct-19 10:42 34.177913 -118.847059 116 6330ft 187kts
26-Oct-19 10:43 34.205373 -118.828660 297 5659ft 171kts
26-Oct-19 10:44 34.207556 -118.887761 272 5055ft 173kts
26-Oct-19 10:45 34.208098 -118.944043 272 5177ft 146kts
26-Oct-19 10:46 34.208655 -118.995318 278 3992ft 182kts
26-Oct-19 10:47 34.213270 -119.051279 272 817ft 123kts
26-Oct-19 10:48 34.213670 -119.083903 271 104ft 68kts
26-Oct-19 10:49 34.212872 -119.090818 203 72ft 0kts
26-Oct-19 10:50 34.212872 -119.090818 203 72ft 0kts
26-Oct-19 10:51 34.212872 -119.090818 203 72ft 0kts
26-Oct-19 10:52 34.210977 -119.088490 86 72ft 32kts

Navigation Log

Ident Type
Flight plan parsing failed, navigation log unavailable